Date,TemperatureHighF,TemperatureAvgF,TemperatureLowF,DewpointHighF,DewpointAvgF,DewpointLowF,HumidityHigh,HumidityAvg,HumidityLow,PressureMaxIn,PressureMinIn,WindSpeedMaxMPH,WindSpeedAvgMPH,GustSpeedMaxMPH,PrecipitationSumIn
2013-1-1,26,21,15,-100,-100,-100,0,0,100,0.00,40.00,0,-999,0,0.00
2013-1-2,27,19,6,-100,-100,-100,0,0,100,0.00,40.00,0,-999,0,0.00
2013-1-3,32,23,11,-100,-100,-100,0,0,100,0.00,40.00,0,-999,0,0.00
2013-1-4,35,25,17,-100,-100,-100,0,0,100,0.00,40.00,0,-999,0,0.00
2013-1-5,33,23,9,-100,-100,-100,0,0,100,0.00,40.00,0,-999,0,0.00
2013-1-6,43,37,16,-100,-100,-100,0,0,100,0.00,40.00,0,-999,0,0.00
2013-1-7,40,35,29,-100,-100,-100,0,0,100,0.00,40.00,0,-999,0,0.00
2013-1-8,43,37,33,-100,-100,-100,0,0,100,0.00,40.00,0,-999,0,0.00
2013-1-9,49,43,36,-100,-100,-100,0,0,100,0.00,40.00,0,-999,0,0.00
2013-1-10,50,45,33,-100,-100,-100,0,0,100,0.00,40.00,0,-999,0,0.00
2013-1-11,30,13,5,-100,-100,-100,0,0,100,0.00,40.00,0,-999,0,0.00
2013-1-12,10,5,-1,-100,-100,-100,0,0,100,0.00,40.00,0,-999,0,0.00
2013-1-13,10,4,-3,-100,-100,-100,0,0,100,0.00,40.00,0,-999,0,0.00
2013-1-14,10,6,1,-100,-100,-100,0,0,100,0.00,40.00,0,-999,0,0.00
2013-1-15,29,21,9,-100,-100,-100,0,0,100,0.00,40.00,0,-999,0,0.00
2013-1-16,39,31,25,-100,-100,-100,0,0,100,0.00,40.00,0,-999,0,0.00
2013-1-17,42,34,25,-100,-100,-100,0,0,100,0.00,40.00,0,-999,0,0.00
2013-1-18,43,38,36,-100,-100,-100,0,0,100,0.00,40.00,0,-999,0,0.00
2013-1-23,54,48,43,-100,-100,-100,0,0,100,0.00,40.00,0,-999,0,0.00
2013-1-24,50,45,38,-100,-100,-100,0,0,100,0.00,40.00,0,-999,0,0.00
2013-1-25,50,42,36,-100,-100,-100,0,0,100,0.00,40.00,0,-999,0,0.00
2013-1-26,52,44,37,-100,-100,-100,0,0,100,0.00,40.00,0,-999,0,0.00
2013-1-27,49,44,41,-100,-100,-100,0,0,100,0.00,40.00,0,-999,0,0.00
2013-1-28,35,27,19,-100,-100,-100,0,0,100,0.00,40.00,0,-999,0,0.03
2013-1-29,25,18,11,-100,-100,-100,0,0,100,0.00,40.00,0,-999,0,0.01
2013-1-30,33,23,7,-100,-100,-100,0,0,100,0.00,40.00,0,-999,0,0.00
2013-1-31,42,32,20,-100,-100,-100,0,0,100,0.00,40.00,0,-999,0,0.03
2013-2-1,40,34,23,-100,-100,-100,0,0,100,0.00,40.00,0,-999,0,0.02
2013-2-2,47,35,26,-100,-100,-100,0,0,100,0.00,40.00,0,-999,0,0.00
2013-2-3,46,38,25,-100,-100,-100,0,0,100,0.00,40.00,0,-999,0,0.00
2013-2-4,49,37,22,-100,-100,-100,0,0,100,0.00,40.00,0,-999,0,0.00
2013-2-5,49,40,29,-100,-100,-100,0,0,100,0.00,40.00,0,-999,0,0.00
2013-2-6,44,40,30,-100,-100,-100,0,0,100,0.00,40.00,0,-999,0,0.00
2013-2-7,43,32,19,-100,-100,-100,0,0,100,0.00,40.00,0,-999,0,0.00
2013-2-8,46,38,30,-100,-100,-100,0,0,100,0.00,40.00,0,-999,0,0.00
2013-2-9,30,27,25,-100,-100,-100,0,0,100,0.00,40.00,0,-999,0,0.00
2013-2-10,25,19,2,-100,-100,-100,0,0,100,0.00,40.00,0,-999,0,0.00
2013-2-11,23,16,7,-100,-100,-100,0,0,100,0.00,40.00,0,-999,0,0.00
2013-2-12,27,23,18,-100,-100,-100,0,0,100,0.00,40.00,0,-999,0,0.00
2013-2-13,38,31,26,-100,-100,-100,0,0,100,0.00,40.00,0,-999,0,0.02
2013-2-14,28,25,22,-100,-100,-100,0,0,100,0.00,40.00,0,-999,0,0.01
2013-2-15,33,26,18,-100,-100,-100,0,0,100,0.00,40.00,0,-999,0,0.01
2013-2-16,42,36,29,-100,-100,-100,0,0,100,0.00,40.00,0,-999,0,0.00
2013-2-17,43,37,27,-100,-100,-100,0,0,100,0.00,40.00,0,-999,0,0.00
2013-2-18,32,25,16,-100,-100,-100,0,0,100,0.00,40.00,0,-999,0,0.00
2013-2-19,43,27,12,-100,-100,-100,0,0,100,0.00,40.00,0,-999,0,0.00
2013-2-20,35,25,19,-100,-100,-100,0,0,100,0.00,40.00,0,-999,0,0.00
2013-2-21,29,23,20,-100,-100,-100,0,0,100,0.00,40.00,0,-999,0,0.00
2013-2-22,34,25,17,-100,-100,-100,0,0,100,0.00,40.00,0,-999,0,0.00
2013-2-23,38,30,24,-100,-100,-100,0,0,100,0.00,40.00,0,-999,0,0.00
2013-2-24,28,24,17,-100,-100,-100,0,0,100,0.00,40.00,0,-999,0,0.01
2013-2-25,31,26,11,-100,-100,-100,0,0,100,0.00,40.00,0,-999,0,0.01
2013-2-26,29,26,21,-100,-100,-100,0,0,100,0.00,40.00,0,-999,0,0.00
2013-2-27,26,22,12,-100,-100,-100,0,0,100,0.00,40.00,0,-999,0,0.00
2013-2-28,34,27,22,-100,-100,-100,0,0,100,0.00,40.00,0,-999,0,0.01
2013-3-1,44,35,21,-100,-100,-100,0,0,100,0.00,40.00,0,-999,0,0.01
2013-3-2,50,44,37,-100,-100,-100,0,0,100,0.00,40.00,0,-999,0,0.00
2013-3-3,50,44,27,-100,-100,-100,0,0,100,0.00,40.00,0,-999,0,0.00
2013-3-4,29,24,14,-100,-100,-100,0,0,100,0.00,40.00,0,-999,0,0.00
2013-3-5,44,29,11,-100,-100,-100,0,0,100,0.00,40.00,0,-999,0,0.00
2013-3-6,55,41,24,-100,-100,-100,0,0,100,0.00,40.00,0,-999,0,0.00
2013-3-7,54,45,37,-100,-100,-100,0,0,100,0.00,40.00,0,-999,0,0.00
2013-3-8,50,36,25,-100,-100,-100,0,0,100,0.00,40.00,0,-999,0,0.00
2013-3-9,37,33,28,-100,-100,-100,0,0,100,0.00,40.00,0,-999,0,0.00
2013-3-10,49,35,17,-100,-100,-100,0,0,100,0.00,40.00,0,-999,0,0.00
2013-3-11,42,35,25,-100,-100,-100,0,0,100,0.00,40.00,0,-999,0,0.10
2013-3-12,47,30,14,-100,-100,-100,0,0,100,0.00,40.00,0,-999,0,0.09
2013-3-13,60,48,37,-100,-100,-100,0,0,100,0.00,40.00,0,-999,0,0.01
2013-3-14,66,53,42,-100,-100,-100,0,0,100,0.00,40.00,0,-999,0,0.00
2013-3-15,66,57,47,-100,-100,-100,0,0,100,0.00,40.00,0,-999,0,0.00
2013-3-16,53,41,31,-100,-100,-100,0,0,100,0.00,40.00,0,-999,0,0.00
2013-3-17,48,37,25,-100,-100,-100,0,0,100,0.00,40.00,0,-999,0,0.00
2013-3-18,43,31,23,-100,-100,-100,0,0,100,0.00,40.00,0,-999,0,0.00
2013-3-19,38,29,23,-100,-100,-100,0,0,100,0.00,40.00,0,-999,0,0.06
2013-3-20,53,34,15,-100,-100,-100,0,0,100,0.00,40.00,0,-999,0,0.01
2013-3-21,45,37,22,-100,-100,-100,0,0,100,0.00,40.00,0,-999,0,0.02
2013-3-22,29,25,22,-100,-100,-100,0,0,100,0.00,40.00,0,-999,0,0.13
2013-3-23,25,20,15,-100,-100,-100,0,0,100,0.00,40.00,0,-999,0,0.01
2013-3-24,23,18,14,-100,-100,-100,0,0,100,0.00,40.00,0,-999,0,0.01
2013-3-25,37,23,8,-100,-100,-100,0,0,100,0.00,40.00,0,-999,0,0.00
2013-3-26,46,37,28,-100,-100,-100,0,0,100,0.00,40.00,0,-999,0,0.01
2013-3-27,55,40,26,-100,-100,-100,0,0,100,0.00,40.00,0,-999,0,0.01
2013-3-28,59,44,27,-100,-100,-100,0,0,100,0.00,40.00,0,-999,0,0.00
2013-3-29,62,48,32,-100,-100,-100,0,0,100,0.00,40.00,0,-999,0,0.00
2013-3-30,51,40,34,-100,-100,-100,0,0,100,0.00,40.00,0,-999,0,0.13
2013-3-31,60,48,33,-100,-100,-100,0,0,100,0.00,40.00,0,-999,0,0.02
2013-4-1,53,41,27,-100,-100,-100,0,0,100,0.00,40.00,0,-999,0,0.00
2013-4-2,57,42,25,-100,-100,-100,0,0,100,0.00,40.00,0,-999,0,0.00
2013-4-3,62,44,32,-100,-100,-100,0,0,100,0.00,40.00,0,-999,0,0.02
2013-4-4,67,50,31,-100,-100,-100,0,0,100,0.00,40.00,0,-999,0,0.02
2013-4-5,66,57,42,-100,-100,-100,0,0,100,0.00,40.00,0,-999,0,0.00
2013-4-6,60,49,39,-100,-100,-100,0,0,100,0.00,40.00,0,-999,0,0.00
2013-4-7,57,50,44,-100,-100,-100,0,0,100,0.00,40.00,0,-999,0,0.00
2013-4-8,48,30,14,-100,-100,-100,0,0,100,0.00,40.00,0,-999,0,0.00
2013-4-9,14,12,11,-100,-100,-100,0,0,100,0.00,40.00,0,-999,0,0.00
2013-4-10,29,18,9,-100,-100,-100,0,0,100,0.00,40.00,0,-999,0,0.01
2013-4-11,46,36,21,-100,-100,-100,0,0,100,0.00,40.00,0,-999,0,0.43
2013-4-12,45,36,31,-100,-100,-100,0,0,100,0.00,40.00,0,-999,0,0.21
2013-4-13,53,42,28,-100,-100,-100,0,0,100,0.00,40.00,0,-999,0,0.01
2013-4-14,40,32,27,-100,-100,-100,0,0,100,0.00,40.00,0,-999,0,0.04
2013-4-15,29,24,21,-100,-100,-100,0,0,100,0.00,40.00,0,-999,0,0.01
2013-4-16,25,21,20,-100,-100,-100,0,0,100,0.00,40.00,0,-999,0,0.00
2013-4-17,23,20,18,-100,-100,-100,0,0,100,0.00,40.00,0,-999,0,0.00
2013-4-18,34,22,11,-100,-100,-100,0,0,100,0.00,40.00,0,-999,0,0.10
2013-4-19,49,39,29,-100,-100,-100,0,0,100,0.00,40.00,0,-999,0,0.22
2013-4-20,57,46,40,-100,-100,-100,0,0,100,0.00,40.00,0,-999,0,0.02
2013-4-21,57,44,33,-100,-100,-100,0,0,100,0.00,40.00,0,-999,0,0.00
2013-4-22,31,25,21,-100,-100,-100,0,0,100,0.00,40.00,0,-999,0,0.00
2013-4-23,40,26,11,-100,-100,-100,0,0,100,0.00,40.00,0,-999,0,0.10
2013-4-24,48,37,27,-100,-100,-100,0,0,100,0.00,40.00,0,-999,0,0.01
2013-4-25,63,52,39,-100,-100,-100,0,0,100,0.00,40.00,0,-999,0,0.01
2013-4-26,69,52,30,-100,-100,-100,0,0,100,0.00,40.00,0,-999,0,0.00
2013-4-27,73,57,36,-100,-100,-100,0,0,100,0.00,40.00,0,-999,0,0.00
2013-4-28,69,59,48,-100,-100,-100,0,0,100,0.00,40.00,0,-999,0,0.00
2013-4-29,69,54,38,-100,-100,-100,0,0,100,0.00,40.00,0,-999,0,0.00
2013-4-30,42,39,32,-100,-100,-100,0,0,100,0.00,40.00,0,-999,0,0.00
2013-5-1,39,30,25,-100,-100,-100,0,0,100,0.00,40.00,0,-999,0,0.14
2013-5-2,52,40,26,-100,-100,-100,0,0,100,0.00,40.00,0,-999,0,0.09
2013-5-3,65,47,28,-100,-100,-100,0,0,100,0.00,40.00,0,-999,0,0.01
2013-5-4,58,49,40,-100,-100,-100,0,0,100,0.00,40.00,0,-999,0,0.00
2013-5-5,61,48,36,-100,-100,-100,0,0,100,0.00,40.00,0,-999,0,0.00
2013-5-6,68,55,38,-100,-100,-100,0,0,100,0.00,40.00,0,-999,0,0.00
2013-5-7,70,54,38,-100,-100,-100,0,0,100,0.00,40.00,0,-999,0,0.00
2013-5-8,68,58,44,-100,-100,-100,0,0,100,0.00,40.00,0,-999,0,0.00
2013-5-9,72,54,40,-100,-100,-100,0,0,100,0.00,40.00,0,-999,0,0.05
2013-5-10,69,56,39,-100,-100,-100,0,0,100,0.00,40.00,0,-999,0,0.05
2013-5-11,72,58,42,-100,-100,-100,0,0,100,0.00,40.00,0,-999,0,0.00
2013-5-12,81,67,51,-100,-100,-100,0,0,100,0.00,40.00,0,-999,0,0.00
2013-5-13,88,72,59,-100,-100,-100,0,0,100,0.00,40.00,0,-999,0,0.00
2013-5-14,87,72,59,-100,-100,-100,0,0,100,0.00,40.00,0,-999,0,0.00
2013-5-15,84,64,50,-100,-100,-100,0,0,100,0.00,40.00,0,-999,0,0.00
2013-5-16,76,64,54,-100,-100,-100,0,0,100,0.00,40.00,0,-999,0,0.05
2013-5-17,82,65,51,-100,-100,-100,0,0,100,0.00,40.00,0,-999,0,0.01
2013-5-18,72,58,46,-100,-100,-100,0,0,100,0.00,40.00,0,-999,0,0.00
2013-5-19,55,50,46,-100,-100,-100,0,0,100,0.00,40.00,0,-999,0,1.73
2013-5-20,53,48,45,-100,-100,-100,0,0,100,0.00,40.00,0,-999,0,0.40
2013-5-21,65,54,43,-100,-100,-100,0,0,100,0.00,40.00,0,-999,0,0.09
2013-5-22,65,52,41,-100,-100,-100,0,0,100,0.00,40.00,0,-999,0,0.00
2013-5-23,80,61,45,-100,-100,-100,0,0,100,0.00,40.00,0,-999,0,0.00
2013-5-24,78,68,58,-100,-100,-100,0,0,100,0.00,40.00,0,-999,0,0.00
2013-5-25,84,64,45,-100,-100,-100,0,0,100,0.00,40.00,0,-999,0,0.00
2013-5-26,83,65,53,-100,-100,-100,0,0,100,0.00,40.00,0,-999,0,0.00
2013-5-27,77,63,50,-100,-100,-100,0,0,100,0.00,40.00,0,-999,0,0.00
2013-5-28,71,59,46,-100,-100,-100,0,0,100,0.00,40.00,0,-999,0,0.00
2013-5-29,61,55,49,-100,-100,-100,0,0,100,0.00,40.00,0,-999,0,0.00
2013-5-30,51,50,49,-100,-100,-100,0,0,100,0.00,40.00,0,-999,0,0.00
2013-5-31,58,54,50,-100,-100,-100,0,0,100,0.00,40.00,0,-999,0,0.00
2013-6-1,70,55,46,-100,-100,-100,0,0,100,0.00,40.00,0,-999,0,0.00
2013-6-2,85,66,41,-100,-100,-100,0,0,100,0.00,40.00,0,-999,0,0.00
2013-6-3,76,68,54,-100,-100,-100,0,0,100,0.00,40.00,0,-999,0,0.00
2013-6-4,61,52,41,-100,-100,-100,0,0,100,0.00,40.00,0,-999,0,0.00
2013-6-5,75,56,39,-100,-100,-100,0,0,100,0.00,40.00,0,-999,0,0.00
2013-6-6,82,63,44,-100,-100,-100,0,0,100,0.00,40.00,0,-999,0,0.00
2013-6-7,83,69,50,-100,-100,-100,0,0,100,0.00,40.00,0,-999,0,0.00
2013-6-8,75,65,54,-100,-100,-100,0,0,100,0.00,40.00,0,-999,0,0.15
2013-6-9,93,70,47,-100,-100,-100,0,0,100,0.00,40.00,0,-999,0,0.04
2013-6-10,90,78,69,-100,-100,-100,0,0,100,0.00,40.00,0,-999,0,0.02
2013-6-11,92,73,55,-100,-100,-100,0,0,100,0.00,40.00,0,-999,0,0.02
2013-6-12,85,70,51,-100,-100,-100,0,0,100,0.00,40.00,0,-999,0,0.00
2013-6-13,91,71,53,-100,-100,-100,0,0,100,0.00,40.00,0,-999,0,0.01
2013-6-14,82,68,53,-100,-100,-100,0,0,100,0.00,40.00,0,-999,0,0.01
2013-6-15,83,63,44,-100,-100,-100,0,0,100,0.00,40.00,0,-999,0,0.00
2013-6-16,85,69,50,-100,-100,-100,0,0,100,0.00,40.00,0,-999,0,0.00
2013-6-17,83,70,57,-100,-100,-100,0,0,100,0.00,40.00,0,-999,0,0.00
2013-6-18,84,68,51,-100,-100,-100,0,0,100,0.00,40.00,0,-999,0,0.00
2013-6-19,95,75,53,-100,-100,-100,0,0,100,0.00,40.00,0,-999,0,0.00
2013-6-20,80,67,58,-100,-100,-100,0,0,100,0.00,40.00,0,-999,0,0.00
2013-6-22,70,62,54,-100,-100,-100,0,0,100,0.00,40.00,0,-999,0,0.03
2013-6-23,86,65,46,-100,-100,-100,0,0,100,0.00,40.00,0,-999,0,0.01
2013-6-24,92,74,52,-100,-100,-100,0,0,100,0.00,40.00,0,-999,0,0.00
2013-6-25,85,76,64,-100,-100,-100,0,0,100,0.00,40.00,0,-999,0,0.00
2013-6-26,94,78,58,-100,-100,-100,0,0,100,0.00,40.00,0,-999,0,0.00
2013-6-27,95,79,58,-100,-100,-100,0,0,100,0.00,40.00,0,-999,0,0.00
2013-6-28,93,77,63,-100,-100,-100,0,0,100,0.00,40.00,0,-999,0,0.00
2013-6-29,90,73,61,-100,-100,-100,0,0,100,0.00,40.00,0,-999,0,0.00
2013-6-30,84,73,60,-100,-100,-100,0,0,100,0.00,40.00,0,-999,0,0.37
2013-7-1,85,72,56,-100,-100,-100,0,0,100,0.00,40.00,0,-999,0,0.00
2013-7-2,86,74,56,-100,-100,-100,0,0,100,0.00,40.00,0,-999,0,0.00
2013-7-3,90,76,57,-100,-100,-100,0,0,100,0.00,40.00,0,-999,0,0.06
2013-7-4,92,72,59,-100,-100,-100,0,0,100,0.00,40.00,0,-999,0,0.07
2013-7-5,86,72,59,-100,-100,-100,0,0,100,0.00,40.00,0,-999,0,0.12
2013-7-6,88,68,60,-100,-100,-100,0,0,100,0.00,40.00,0,-999,0,0.19
2013-7-7,91,75,60,-100,-100,-100,0,0,100,0.00,40.00,0,-999,0,0.23
2013-7-8,91,71,60,-100,-100,-100,0,0,100,0.00,40.00,0,-999,0,0.01
2013-7-9,91,76,57,-100,-100,-100,0,0,100,0.00,40.00,0,-999,0,0.00
2013-7-10,95,79,58,-100,-100,-100,0,0,100,0.00,40.00,0,-999,0,0.00
2013-7-11,101,78,60,-100,-100,-100,0,0,100,0.00,40.00,0,-999,0,0.00
2013-7-12,86,79,70,-100,-100,-100,0,0,100,0.00,40.00,0,-999,0,0.00
2013-7-13,90,78,69,-100,-100,-100,0,0,100,0.00,40.00,0,-999,0,0.00
2013-7-14,84,71,62,-100,-100,-100,0,0,100,0.00,40.00,0,-999,0,0.00
2013-7-15,93,75,58,-100,-100,-100,0,0,100,0.00,40.00,0,-999,0,0.00
2013-7-16,88,75,61,-100,-100,-100,0,0,100,0.00,40.00,0,-999,0,0.00
2013-7-17,92,76,58,-100,-100,-100,0,0,100,0.00,40.00,0,-999,0,0.00
2013-7-18,92,82,71,-100,-100,-100,0,0,100,0.00,40.00,0,-999,0,0.00
2013-7-19,87,76,61,-100,-100,-100,0,0,100,0.00,40.00,0,-999,0,1.01
2013-7-20,94,76,61,-100,-100,-100,0,0,100,0.00,40.00,0,-999,0,0.33
2013-7-21,95,80,60,-100,-100,-100,0,0,100,0.00,40.00,0,-999,0,0.00
2013-7-22,97,78,60,-100,-100,-100,0,0,100,0.00,40.00,0,-999,0,0.00
2013-7-23,92,77,59,-100,-100,-100,0,0,100,0.00,40.00,0,-999,0,0.00
2013-7-24,90,75,62,-100,-100,-100,0,0,100,0.00,40.00,0,-999,0,0.03
2013-7-25,84,72,62,-100,-100,-100,0,0,100,0.00,40.00,0,-999,0,0.03
2013-7-26,90,72,54,-100,-100,-100,0,0,100,0.00,40.00,0,-999,0,0.00
2013-7-27,79,67,55,-100,-100,-100,0,0,100,0.00,40.00,0,-999,0,0.05
2013-7-28,85,73,62,-100,-100,-100,0,0,100,0.00,40.00,0,-999,0,0.05
2013-7-29,83,68,58,-100,-100,-100,0,0,100,0.00,40.00,0,-999,0,0.93
2013-7-30,84,72,60,-100,-100,-100,0,0,100,0.00,40.00,0,-999,0,0.93
2013-7-31,87,70,56,-100,-100,-100,0,0,100,0.00,40.00,0,-999,0,0.00
2013-8-1,88,74,58,-100,-100,-100,0,0,100,0.00,40.00,0,-999,0,0.00
2013-8-2,91,80,69,-100,-100,-100,0,0,100,0.00,40.00,0,-999,0,0.00
2013-8-3,84,73,60,-100,-100,-100,0,0,100,0.00,40.00,0,-999,0,0.00
2013-8-4,93,79,61,-100,-100,-100,0,0,100,0.00,40.00,0,-999,0,0.00
2013-8-5,94,76,64,-100,-100,-100,0,0,100,0.00,40.00,0,-999,0,0.00
2013-8-6,86,73,57,-100,-100,-100,0,0,100,0.00,40.00,0,-999,0,0.00
2013-8-7,89,73,58,-100,-100,-100,0,0,100,0.00,40.00,0,-999,0,0.00
2013-8-8,84,66,56,-100,-100,-100,0,0,100,0.00,40.00,0,-999,0,0.00
2013-8-9,79,65,57,-100,-100,-100,0,0,100,0.00,40.00,0,-999,0,0.00
2013-8-10,86,68,54,-100,-100,-100,0,0,100,0.00,40.00,0,-999,0,0.00
2013-8-11,86,71,58,-100,-100,-100,0,0,100,0.00,40.00,0,-999,0,0.00
2013-8-12,70,61,56,-100,-100,-100,0,0,100,0.00,40.00,0,-999,0,0.00
2013-8-16,94,80,55,-100,-100,-100,0,0,100,0.00,40.00,0,-999,0,0.00
2013-8-17,96,79,59,-100,-100,-100,0,0,100,0.00,40.00,0,-999,0,0.00
2013-8-18,95,78,62,-100,-100,-100,0,0,100,0.00,40.00,0,-999,0,0.00
2013-8-19,97,76,58,-100,-100,-100,0,0,100,0.00,40.00,0,-999,0,0.00
2013-8-20,91,76,61,-100,-100,-100,0,0,100,0.00,40.00,0,-999,0,0.00
2013-8-21,84,76,65,-100,-100,-100,0,0,100,0.00,40.00,0,-999,0,0.00
2013-8-22,89,72,61,-100,-100,-100,0,0,100,0.00,40.00,0,-999,0,0.00
2013-8-23,90,77,67,-100,-100,-100,0,0,100,0.00,40.00,0,-999,0,0.00
2013-8-24,86,75,66,-100,-100,-100,0,0,100,0.00,40.00,0,-999,0,0.00
2013-8-25,84,75,63,-100,-100,-100,0,0,100,0.00,40.00,0,-999,0,0.00
2013-8-26,87,77,69,-100,-100,-100,0,0,100,0.00,40.00,0,-999,0,0.00
2013-8-27,86,75,69,-100,-100,-100,0,0,100,0.00,40.00,0,-999,0,0.00
2013-8-28,93,86,76,-100,-100,-100,0,0,100,0.00,40.00,0,-999,0,0.00
2013-8-29,91,79,62,-100,-100,-100,0,0,100,0.00,40.00,0,-999,0,0.00
2013-8-30,92,77,61,-100,-100,-100,0,0,100,0.00,40.00,0,-999,0,0.00
2013-8-31,85,73,63,-100,-100,-100,0,0,100,0.00,40.00,0,-999,0,0.00
2013-9-1,86,70,54,-100,-100,-100,0,0,100,0.00,40.00,0,-999,0,0.00
2013-9-2,94,73,58,-100,-100,-100,0,0,100,0.00,40.00,0,-999,0,0.00
2013-9-3,88,76,63,-100,-100,-100,0,0,100,0.00,40.00,0,-999,0,0.00
2013-9-4,93,78,62,-100,-100,-100,0,0,100,0.00,40.00,0,-999,0,0.00
2013-9-5,94,80,62,-100,-100,-100,0,0,100,0.00,40.00,0,-999,0,0.00
2013-9-6,90,83,76,-100,-100,-100,0,0,100,0.00,40.00,0,-999,0,0.00
2013-9-7,92,76,62,-100,-100,-100,0,0,100,0.00,40.00,0,-999,0,0.00
2013-9-8,87,71,61,-100,-100,-100,0,0,100,0.00,40.00,0,-999,0,0.00
2013-9-9,74,66,58,-100,-100,-100,0,0,100,0.00,40.00,0,-999,0,0.00
2013-9-10,69,64,58,-100,-100,-100,0,0,100,0.00,40.00,0,-999,0,0.00
2013-9-11,65,62,59,-100,-100,-100,0,0,100,0.00,40.00,0,-999,0,0.00
2013-9-12,66,60,57,-100,-100,-100,0,0,100,0.00,40.00,0,-999,0,0.00
2013-9-13,68,60,55,-100,-100,-100,0,0,100,0.00,40.00,0,-999,0,0.00
2013-9-14,75,62,51,-100,-100,-100,0,0,100,0.00,40.00,0,-999,0,0.00
2013-9-15,61,58,55,-100,-100,-100,0,0,100,0.00,40.00,0,-999,0,0.00
2013-9-16,79,64,50,-100,-100,-100,0,0,100,0.00,40.00,0,-999,0,0.00
2013-9-17,82,70,59,-100,-100,-100,0,0,100,0.00,40.00,0,-999,0,0.00
2013-9-18,70,60,53,-100,-100,-100,0,0,100,0.00,40.00,0,-999,0,0.00
2013-9-19,63,53,40,-100,-100,-100,0,0,100,0.00,40.00,0,-999,0,0.00
2013-9-20,75,54,35,-100,-100,-100,0,0,100,0.00,40.00,0,-999,0,0.00
2013-9-21,82,71,49,-100,-100,-100,0,0,100,0.00,40.00,0,-999,0,0.00
2013-9-22,78,67,58,-100,-100,-100,0,0,100,0.00,40.00,0,-999,0,0.00
2013-9-23,67,57,49,-100,-100,-100,0,0,100,0.00,40.00,0,-999,0,0.00
2013-9-24,76,63,48,-100,-100,-100,0,0,100,0.00,40.00,0,-999,0,0.00
2013-9-25,77,64,44,-100,-100,-100,0,0,100,0.00,40.00,0,-999,0,0.00
2013-9-26,58,48,40,-100,-100,-100,0,0,100,0.00,40.00,0,-999,0,0.00
2013-9-27,37,35,32,-100,-100,-100,0,0,100,0.00,40.00,0,-999,0,0.00
2013-9-28,59,46,36,-100,-100,-100,0,0,100,0.00,40.00,0,-999,0,0.00
2013-9-30,75,71,63,-100,-100,-100,0,0,100,0.00,40.00,0,-999,0,0.00
2013-10-1,72,60,52,-100,-100,-100,0,0,100,0.00,40.00,0,-999,0,0.00
2013-10-2,58,51,43,-100,-100,-100,0,0,100,0.00,40.00,0,-999,0,0.00
2013-10-3,48,44,32,-100,-100,-100,0,0,100,0.00,40.00,0,-999,0,0.71
2013-10-4,32,30,28,-100,-100,-100,0,0,100,0.00,40.00,0,-999,0,0.47
2013-10-5,39,34,26,-100,-100,-100,0,0,100,0.00,40.00,0,-999,0,0.44
2013-10-6,53,46,39,-100,-100,-100,0,0,100,0.00,40.00,0,-999,0,0.34
2013-10-7,66,58,51,-100,-100,-100,0,0,100,0.00,40.00,0,-999,0,0.01
2013-10-8,68,59,50,-100,-100,-100,0,0,100,0.00,40.00,0,-999,0,0.00
2013-10-9,54,46,39,-100,-100,-100,0,0,100,0.00,40.00,0,-999,0,0.00
2013-10-10,57,45,35,-100,-100,-100,0,0,100,0.00,40.00,0,-999,0,0.20
2013-10-11,47,43,39,-100,-100,-100,0,0,100,0.00,40.00,0,-999,0,0.46
2013-10-12,54,41,29,-100,-100,-100,0,0,100,0.00,40.00,0,-999,0,0.01
2013-10-13,56,42,34,-100,-100,-100,0,0,100,0.00,40.00,0,-999,0,0.07
2013-10-14,44,36,31,-100,-100,-100,0,0,100,0.00,40.00,0,-999,0,0.38
2013-10-15,37,33,30,-100,-100,-100,0,0,100,0.00,40.00,0,-999,0,0.01
2013-10-16,49,40,33,-100,-100,-100,0,0,100,0.00,40.00,0,-999,0,0.00
2013-10-17,40,36,33,-100,-100,-100,0,0,100,0.00,40.00,0,-999,0,0.00
2013-10-18,43,36,30,-100,-100,-100,0,0,100,0.00,40.00,0,-999,0,0.00
2013-10-19,58,46,39,-100,-100,-100,0,0,100,0.00,40.00,0,-999,0,0.00
2013-10-20,46,40,31,-100,-100,-100,0,0,100,0.00,40.00,0,-999,0,0.00
2013-10-21,55,45,31,-100,-100,-100,0,0,100,0.00,40.00,0,-999,0,0.00
2013-10-22,62,50,40,-100,-100,-100,0,0,100,0.00,40.00,0,-999,0,0.00
2013-10-23,60,44,31,-100,-100,-100,0,0,100,0.00,40.00,0,-999,0,0.00
2013-10-24,55,42,30,-100,-100,-100,0,0,100,0.00,40.00,0,-999,0,0.00
2013-10-25,64,47,32,-100,-100,-100,0,0,100,0.00,40.00,0,-999,0,0.00
2013-10-26,63,47,33,-100,-100,-100,0,0,100,0.00,40.00,0,-999,0,0.00
2013-10-27,64,53,39,-100,-100,-100,0,0,100,0.00,40.00,0,-999,0,0.00
2013-10-28,40,32,28,-100,-100,-100,0,0,100,0.00,40.00,0,-999,0,0.00
2013-10-29,42,32,28,-100,-100,-100,0,0,100,0.00,40.00,0,-999,0,0.00
2013-10-30,48,39,29,-100,-100,-100,0,0,100,0.00,40.00,0,-999,0,0.00
2013-10-31,53,41,34,-100,-100,-100,0,0,100,0.00,40.00,0,-999,0,0.00
2013-11-1,47,40,29,-100,-100,-100,0,0,100,0.00,40.00,0,-999,0,0.00
2013-11-2,59,45,26,-100,-100,-100,0,0,100,0.00,40.00,0,-999,0,0.00
2013-11-3,51,44,30,-100,-100,-100,0,0,100,0.00,40.00,0,-999,0,0.00
2013-11-4,38,32,26,-100,-100,-100,0,0,100,0.00,40.00,0,-999,0,0.00
2013-11-5,37,30,23,-100,-100,-100,0,0,100,0.00,40.00,0,-999,0,0.00
2013-11-6,47,36,25,-100,-100,-100,0,0,100,0.00,40.00,0,-999,0,0.00
2013-11-7,51,43,22,-100,-100,-100,0,0,100,0.00,40.00,0,-999,0,0.00
2013-11-8,55,47,32,-100,-100,-100,0,0,100,0.00,40.00,0,-999,0,0.00
2013-11-9,48,37,28,-100,-100,-100,0,0,100,0.00,40.00,0,-999,0,0.00
2013-11-10,62,47,26,-100,-100,-100,0,0,100,0.00,40.00,0,-999,0,0.00
2013-11-18,54,51,49,-100,-100,-100,0,0,100,0.00,40.00,0,-999,0,0.00
2013-11-19,56,49,44,-100,-100,-100,0,0,100,0.00,40.00,0,-999,0,0.00
2013-11-20,53,35,11,-100,-100,-100,0,0,100,0.00,40.00,0,-999,0,0.00
2013-11-21,15,10,5,-100,-100,-100,0,0,100,0.00,40.00,0,-999,0,0.00
2013-11-22,26,13,2,-100,-100,-100,0,0,100,0.00,40.00,0,-999,0,0.00
2013-11-23,27,11,-1,-100,-100,-100,0,0,100,0.00,40.00,0,-999,0,0.00
2013-11-24,40,23,6,-100,-100,-100,0,0,100,0.00,40.00,0,-999,0,0.00
2013-11-25,41,31,22,-100,-100,-100,0,0,100,0.00,40.00,0,-999,0,0.00
2013-11-26,45,36,21,-100,-100,-100,0,0,100,0.00,40.00,0,-999,0,0.00
2013-11-27,52,43,28,-100,-100,-100,0,0,100,0.00,40.00,0,-999,0,0.00
2013-11-28,41,30,20,-100,-100,-100,0,0,100,0.00,40.00,0,-999,0,0.00
2013-11-29,49,45,42,-100,-100,-100,0,0,100,0.00,40.00,0,-999,0,0.00
2013-11-30,47,42,39,-100,-100,-100,0,0,100,0.00,40.00,0,-999,0,0.00
2013-12-1,46,42,38,-100,-100,-100,0,0,100,0.00,40.00,0,-999,0,0.00
2013-12-2,52,46,42,-100,-100,-100,0,0,100,0.00,40.00,0,-999,0,0.00
2013-12-3,40,15,4,-100,-100,-100,0,0,100,0.00,40.00,0,-999,0,0.00
2013-12-4,3,-2,-11,-100,-100,-100,0,0,100,0.00,40.00,0,-999,0,0.00
2013-12-5,2,-6,-15,-100,-100,-100,0,0,100,0.00,40.00,0,-999,0,0.00
2013-12-6,-2,-10,-16,-100,-100,-100,0,0,100,0.00,40.00,0,-999,0,0.00
2013-12-7,-4,-8,-14,-100,-100,-100,0,0,100,0.00,40.00,0,-999,0,0.00
2013-12-8,13,4,-6,-100,-100,-100,0,0,100,0.00,40.00,0,-999,0,0.00
2013-12-9,18,10,-1,-100,-100,-100,0,0,100,0.00,40.00,0,-999,0,0.00
2013-12-10,26,20,14,-100,-100,-100,0,0,100,0.00,40.00,0,-999,0,0.00
2013-12-11,33,25,6,-100,-100,-100,0,0,100,0.00,40.00,0,-999,0,0.00
2013-12-12,44,38,32,-100,-100,-100,0,0,100,0.00,40.00,0,-999,0,0.08
2013-12-13,38,33,25,-100,-100,-100,0,0,100,0.00,40.00,0,-999,0,0.01
2013-12-14,37,32,25,-100,-100,-100,0,0,100,0.00,40.00,0,-999,0,0.00
2013-12-15,45,39,34,-100,-100,-100,0,0,100,0.00,40.00,0,-999,0,0.00
2013-12-16,48,43,39,-100,-100,-100,0,0,100,0.00,40.00,0,-999,0,0.00
2013-12-17,50,44,37,-100,-100,-100,0,0,100,0.00,40.00,0,-999,0,0.00
2013-12-18,51,47,42,-100,-100,-100,0,0,100,0.00,40.00,0,-999,0,0.00
2013-12-19,45,20,5,-100,-100,-100,0,0,100,0.00,40.00,0,-999,0,0.00
2013-12-20,23,16,4,-100,-100,-100,0,0,100,0.00,40.00,0,-999,0,0.00
2013-12-21,28,24,17,-100,-100,-100,0,0,100,0.00,40.00,0,-999,0,0.00
2013-12-22,29,20,15,-100,-100,-100,0,0,100,0.00,40.00,0,-999,0,0.00
2013-12-23,40,30,15,-100,-100,-100,0,0,100,0.00,40.00,0,-999,0,0.33
2013-12-24,40,32,23,-100,-100,-100,0,0,100,0.00,40.00,0,-999,0,0.26
2013-12-25,35,28,20,-100,-100,-100,0,0,100,0.00,40.00,0,-999,0,0.01
2013-12-26,40,37,33,-100,-100,-100,0,0,100,0.00,40.00,0,-999,0,0.00
2013-12-27,47,42,38,-100,-100,-100,0,0,100,0.00,40.00,0,-999,0,0.00
2013-12-28,45,30,9,-100,-100,-100,0,0,100,0.00,40.00,0,-999,0,0.00
2013-12-29,31,20,-2,-100,-100,-100,0,0,100,0.00,40.00,0,-999,0,0.00
2013-12-30,36,32,27,-100,-100,-100,0,0,100,0.00,40.00,0,-999,0,0.00
2013-12-31,42,38,32,-100,-100,-100,0,0,100,0.00,40.00,0,-999,0,0.00
2014-1-1,31,27,16,-100,-100,-100,0,0,100,0.00,40.00,0,-999,0,0.01
2014-1-2,38,32,24,-100,-100,-100,0,0,100,0.00,40.00,0,-999,0,0.01